createdAt,value
2019-03-28T00:00:49.427Z,101530.17
2019-03-28T00:03:22.469Z,101527.88
2019-03-28T00:05:55.209Z,101527.92
2019-03-28T00:08:28.293Z,101529.69
2019-03-28T00:11:01.394Z,101527.60
2019-03-28T00:13:35.387Z,101522.50
2019-03-28T00:16:08.015Z,101517.50
2019-03-28T00:18:46.915Z,101525.41
2019-03-28T00:21:19.548Z,101528.77
2019-03-28T00:24:03.474Z,101527.00
2019-03-28T00:26:37.156Z,101527.81
2019-03-28T00:29:14.854Z,101525.85
2019-03-28T00:31:47.966Z,101522.18
2019-03-28T00:34:21.430Z,101524.65
2019-03-28T00:36:57.184Z,101523.30
2019-03-28T00:39:30.106Z,101516.02
2019-03-28T00:42:02.701Z,101516.02
2019-03-28T00:44:35.477Z,101516.34
2019-03-28T00:47:08.022Z,101511.87
2019-03-28T00:49:40.826Z,101512.70
2019-03-28T00:52:13.421Z,101510.13
2019-03-28T00:54:46.259Z,101514.24
2019-03-28T00:57:19.253Z,101509.38
2019-03-28T00:59:52.104Z,101508.27
2019-03-28T01:02:24.764Z,101505.56
2019-03-28T01:04:57.744Z,101497.44
2019-03-28T01:07:30.334Z,101498.17
2019-03-28T01:10:03.043Z,101496.86
2019-03-28T01:12:37.687Z,101492.94
2019-03-28T01:15:11.827Z,101497.45
2019-03-28T01:17:44.400Z,101494.48
2019-03-28T01:20:17.497Z,101494.78
2019-03-28T01:22:50.167Z,101499.41
2019-03-28T01:25:22.961Z,101492.11
2019-03-28T01:27:57.151Z,101493.67
2019-03-28T01:30:29.844Z,101493.50
2019-03-28T01:33:02.408Z,101487.72
2019-03-28T01:35:36.626Z,101484.93
2019-03-28T01:38:09.231Z,101489.60
2019-03-28T01:40:42.017Z,101483.67
2019-03-28T01:43:16.766Z,101488.55
2019-03-28T01:45:49.630Z,101486.96
2019-03-28T01:48:22.234Z,101488.70
2019-03-28T01:50:55.292Z,101494.72
2019-03-28T01:53:27.899Z,101495.19
2019-03-28T01:56:00.573Z,101502.98
2019-03-28T01:58:33.141Z,101507.36
2019-03-28T02:01:05.748Z,101506.44
2019-03-28T02:03:38.348Z,101506.30
2019-03-28T02:06:11.015Z,101504.30
2019-03-28T02:08:43.610Z,101510.41
2019-03-28T02:11:17.628Z,101509.52
2019-03-28T02:13:50.287Z,101508.31
2019-03-28T02:16:23.233Z,101508.77
2019-03-28T02:18:55.821Z,101503.59
2019-03-28T02:21:28.995Z,101504.03
2019-03-28T02:24:01.572Z,101501.92
2019-03-28T02:26:34.456Z,101497.34
2019-03-28T02:29:07.310Z,101495.01
2019-03-28T02:31:40.434Z,101498.61
2019-03-28T02:34:13.060Z,101501.92
2019-03-28T02:36:47.938Z,101500.16
2019-03-28T02:39:20.533Z,101496.74
2019-03-28T02:41:53.421Z,101501.92
2019-03-28T02:44:26.049Z,101498.84
2019-03-28T02:47:01.335Z,101503.45
2019-03-28T02:49:34.341Z,101504.08
2019-03-28T02:52:07.611Z,101506.45
2019-03-28T02:54:40.170Z,101507.91
2019-03-28T02:57:19.222Z,101513.03
2019-03-28T02:59:51.831Z,101516.02
2019-03-28T03:02:26.183Z,101518.97
2019-03-28T03:04:59.813Z,101517.66
2019-03-28T03:07:32.578Z,101522.42
2019-03-28T03:10:05.541Z,101516.55
2019-03-28T03:12:38.218Z,101518.78
2019-03-28T03:15:16.338Z,101518.02
2019-03-28T03:17:49.164Z,101515.45
2019-03-28T03:20:21.719Z,101519.16
2019-03-28T03:22:54.830Z,101518.97
2019-03-28T03:25:27.694Z,101519.81
2019-03-28T03:28:02.261Z,101519.57
2019-03-28T03:30:34.867Z,101518.87
2019-03-28T03:33:12.132Z,101520.27
2019-03-28T03:35:44.831Z,101520.12
2019-03-28T03:38:21.648Z,101518.88
2019-03-28T03:40:55.772Z,101517.38
2019-03-28T03:43:28.666Z,101518.41
2019-03-28T03:46:01.796Z,101523.49
2019-03-28T03:48:34.707Z,101524.24
2019-03-28T03:51:07.363Z,101525.14
2019-03-28T03:53:40.632Z,101524.48
2019-03-28T03:56:13.224Z,101525.59
2019-03-28T03:58:47.334Z,101526.02
2019-03-28T04:01:19.913Z,101530.97
2019-03-28T04:03:58.079Z,101538.30
2019-03-28T04:06:30.728Z,101542.18
2019-03-28T04:09:06.427Z,101542.41
2019-03-28T04:11:39.284Z,101544.32
2019-03-28T04:14:16.021Z,101544.14
2019-03-28T04:16:48.642Z,101550.53
2019-03-28T04:19:21.299Z,101546.05
2019-03-28T04:21:53.930Z,101551.66
2019-03-28T04:24:27.031Z,101555.06
2019-03-28T04:26:59.660Z,101556.88
2019-03-28T04:29:32.531Z,101558.47
2019-03-28T04:32:05.139Z,101560.62
2019-03-28T04:34:37.958Z,101560.81
2019-03-28T04:37:10.732Z,101568.75
2019-03-28T04:39:48.872Z,101568.14
2019-03-28T04:42:21.472Z,101569.08
2019-03-28T04:44:54.348Z,101574.63
2019-03-28T04:47:30.004Z,101578.00
2019-03-28T04:50:06.023Z,101578.80
2019-03-28T04:52:38.716Z,101581.31
2019-03-28T04:55:12.261Z,101583.04
2019-03-28T04:57:44.917Z,101582.02
2019-03-28T05:00:21.784Z,101587.25
2019-03-28T05:02:54.412Z,101587.47
2019-03-28T05:05:27.476Z,101589.16
2019-03-28T05:08:00.111Z,101595.61
2019-03-28T05:10:34.358Z,101597.72
2019-03-28T05:13:10.460Z,101600.79
2019-03-28T05:15:43.274Z,101598.08
2019-03-28T05:18:17.390Z,101599.48
2019-03-28T05:20:50.196Z,101603.04
2019-03-28T05:23:23.057Z,101608.31
2019-03-28T05:25:56.392Z,101605.37
2019-03-28T05:28:29.020Z,101603.09
2019-03-28T05:31:03.309Z,101601.34
2019-03-28T05:33:35.992Z,101603.31
2019-03-28T05:36:08.735Z,101605.17
2019-03-28T05:38:41.413Z,101604.16
2019-03-28T05:41:17.520Z,101605.75
2019-03-28T05:43:50.553Z,101611.91
2019-03-28T05:46:23.205Z,101616.92
2019-03-28T05:48:55.896Z,101620.51
2019-03-28T05:51:28.546Z,101622.01
2019-03-28T05:54:01.201Z,101623.50
2019-03-28T05:56:42.159Z,101623.36
2019-03-28T05:59:14.742Z,101622.23
2019-03-28T06:01:47.704Z,101632.66
2019-03-28T06:04:20.545Z,101628.91
2019-03-28T06:06:53.464Z,101631.74
2019-03-28T06:09:26.106Z,101637.83
2019-03-28T06:11:59.040Z,101639.16
2019-03-28T06:14:31.639Z,101644.22
2019-03-28T06:17:04.401Z,101646.19
2019-03-28T06:19:40.049Z,101651.00
2019-03-28T06:22:13.424Z,101652.11
2019-03-28T06:24:46.437Z,101654.31
2019-03-28T06:27:19.411Z,101663.38
2019-03-28T06:29:52.544Z,101670.61
2019-03-28T06:32:25.759Z,101666.06
2019-03-28T06:35:00.305Z,101666.31
2019-03-28T06:37:32.987Z,101669.56
2019-03-28T06:40:07.682Z,101675.13
2019-03-28T06:42:40.672Z,101676.42
2019-03-28T06:45:13.672Z,101671.30
2019-03-28T06:47:46.592Z,101674.27
2019-03-28T06:50:19.261Z,101677.38
2019-03-28T06:52:52.110Z,101685.55
2019-03-28T06:55:25.583Z,101688.28
2019-03-28T06:57:58.636Z,101688.96
2019-03-28T07:00:31.255Z,101694.72
2019-03-28T07:03:03.983Z,101697.44
2019-03-28T07:05:36.604Z,101695.11
2019-03-28T07:08:09.377Z,101693.58
2019-03-28T07:10:42.239Z,101704.97
2019-03-28T07:13:14.959Z,101708.58
2019-03-28T07:15:47.570Z,101707.20
2019-03-28T07:18:20.281Z,101713.19
2019-03-28T07:20:52.913Z,101718.32
2019-03-28T07:23:25.497Z,101717.80
2019-03-28T07:25:59.443Z,101717.63
2019-03-28T07:28:32.284Z,101715.54
2019-03-28T07:31:04.984Z,101710.50
2019-03-28T07:33:37.778Z,101702.45
2019-03-28T07:36:10.533Z,101708.73
2019-03-28T07:38:43.166Z,101710.84
2019-03-28T07:41:16.574Z,101715.14
2019-03-28T07:43:50.291Z,101722.21
2019-03-28T07:46:22.929Z,101722.15
2019-03-28T07:48:57.521Z,101729.22
2019-03-28T07:51:30.124Z,101734.29
2019-03-28T07:54:02.962Z,101731.44
2019-03-28T07:56:35.538Z,101742.17
2019-03-28T07:59:08.733Z,101746.17
2019-03-28T08:01:42.607Z,101739.78
2019-03-28T08:04:15.210Z,101748.53
2019-03-28T08:06:50.079Z,101741.62
2019-03-28T08:09:22.142Z,101742.53
2019-03-28T08:11:54.757Z,101741.87
2019-03-28T08:14:27.675Z,101756.11
2019-03-28T08:17:00.612Z,101769.35
2019-03-28T08:19:33.543Z,101755.93
2019-03-28T08:22:06.143Z,101759.95
2019-03-28T08:24:38.782Z,101757.73
2019-03-28T08:27:11.406Z,101758.66
2019-03-28T08:29:44.334Z,101756.14
2019-03-28T08:32:20.445Z,101749.34
2019-03-28T08:34:53.193Z,101751.83
2019-03-28T08:37:26.168Z,101757.45
2019-03-28T08:39:59.185Z,101757.48
2019-03-28T08:42:31.834Z,101762.13
2019-03-28T08:45:04.864Z,101757.77
2019-03-28T08:47:37.405Z,101760.63
2019-03-28T08:50:10.360Z,101765.08
2019-03-28T08:52:43.025Z,101772.50
2019-03-28T08:55:17.503Z,101768.77
2019-03-28T08:57:50.080Z,101775.78
2019-03-28T09:00:33.151Z,101779.72
2019-03-28T09:02:57.631Z,101788.00
2019-03-28T09:05:30.376Z,101790.70
2019-03-28T09:08:03.012Z,101791.79
2019-03-28T09:10:36.039Z,101800.30
2019-03-28T09:13:08.676Z,101798.28
2019-03-28T09:15:44.051Z,101799.95
2019-03-28T09:18:16.618Z,101802.28
2019-03-28T09:20:49.541Z,101803.36
2019-03-28T09:23:22.111Z,101801.77
2019-03-28T09:25:54.998Z,101798.38
2019-03-28T09:28:27.611Z,101809.00
2019-03-28T09:31:00.978Z,101805.97
2019-03-28T09:33:34.209Z,101808.84
2019-03-28T09:36:07.058Z,101806.91
2019-03-28T09:38:39.622Z,101804.53
2019-03-28T09:41:12.356Z,101809.03
2019-03-28T09:43:55.183Z,101806.38
2019-03-28T09:46:20.252Z,101809.56
2019-03-28T09:48:52.852Z,101812.61
2019-03-28T09:51:25.802Z,101818.17
2019-03-28T09:53:58.450Z,101822.76
2019-03-28T09:56:31.260Z,101817.80
2019-03-28T09:59:03.901Z,101825.12
2019-03-28T10:01:36.823Z,101822.88
2019-03-28T10:04:09.559Z,101824.02
2019-03-28T10:06:42.402Z,101822.65
2019-03-28T10:09:15.162Z,101827.77
2019-03-28T10:11:48.165Z,101835.98
2019-03-28T10:14:20.777Z,101835.69
2019-03-28T10:16:53.933Z,101832.70
2019-03-28T10:19:26.540Z,101831.06
2019-03-28T10:21:59.401Z,101836.46
2019-03-28T10:24:32.773Z,101841.70
2019-03-28T10:27:05.581Z,101843.30
2019-03-28T10:29:38.376Z,101839.14
2019-03-28T10:32:11.333Z,101844.58
2019-03-28T10:34:43.916Z,101845.69
2019-03-28T10:37:16.707Z,101844.09
2019-03-28T10:39:49.285Z,101844.09
2019-03-28T10:42:22.169Z,101851.06
2019-03-28T10:44:54.866Z,101853.02
2019-03-28T10:47:28.160Z,101850.55
2019-03-28T10:50:03.748Z,101849.67
2019-03-28T10:52:35.372Z,101846.78
2019-03-28T10:55:08.395Z,101843.75
2019-03-28T10:57:41.321Z,101850.75
2019-03-28T11:00:23.914Z,101838.53
2019-03-28T11:02:49.580Z,101841.14
2019-03-28T11:05:22.585Z,101840.88
2019-03-28T11:07:55.534Z,101847.17
2019-03-28T11:10:30.583Z,101836.43
2019-03-28T11:13:09.530Z,101846.37
2019-03-28T11:15:41.114Z,101840.39
2019-03-28T11:18:14.271Z,101841.89
2019-03-28T11:20:47.275Z,101847.02
2019-03-28T11:23:21.957Z,101850.42
2019-03-28T11:25:57.373Z,101855.45
2019-03-28T11:28:29.480Z,101865.38
2019-03-28T11:31:02.127Z,101866.12
2019-03-28T11:33:35.353Z,101874.31
2019-03-28T11:36:07.965Z,101876.45
2019-03-28T11:38:40.564Z,101871.34
2019-03-28T11:41:13.172Z,101877.60
2019-03-28T11:43:46.258Z,101878.37
2019-03-28T11:46:18.872Z,101863.91
2019-03-28T11:48:52.067Z,101863.17
2019-03-28T11:51:26.735Z,101867.45
2019-03-28T11:53:59.441Z,101873.45
2019-03-28T11:56:32.147Z,101863.14
2019-03-28T11:59:06.583Z,101860.08
2019-03-28T12:01:39.473Z,101857.61
2019-03-28T12:04:12.309Z,101868.49
2019-03-28T12:06:45.000Z,101867.99
2019-03-28T12:09:17.775Z,101868.73
2019-03-28T12:11:52.941Z,101867.96
2019-03-28T12:14:24.801Z,101871.18
2019-03-28T12:16:57.485Z,101864.03
2019-03-28T12:19:30.649Z,101863.67
2019-03-28T12:22:03.237Z,101853.71
2019-03-28T12:24:39.143Z,101855.35
2019-03-28T12:27:11.805Z,101858.70
2019-03-28T12:29:44.759Z,101865.64
2019-03-28T12:32:17.361Z,101864.31
2019-03-28T12:34:50.312Z,101863.63
2019-03-28T12:37:25.517Z,101876.50
2019-03-28T12:40:00.001Z,101871.80
2019-03-28T12:42:31.807Z,101874.02
2019-03-28T12:45:06.472Z,101869.72
2019-03-28T12:47:42.839Z,101873.28
2019-03-28T12:50:15.003Z,101865.06
2019-03-28T12:52:48.946Z,101865.57
2019-03-28T12:55:21.909Z,101868.18
2019-03-28T12:57:54.616Z,101856.20
2019-03-28T13:00:38.865Z,101863.20
2019-03-28T13:03:11.537Z,101860.84
2019-03-28T13:05:44.674Z,101867.25
2019-03-28T13:08:17.783Z,101871.54
2019-03-28T13:10:50.890Z,101868.61
2019-03-28T13:13:26.165Z,101871.36
2019-03-28T13:15:58.750Z,101872.19
2019-03-28T13:18:36.014Z,101859.87
2019-03-28T13:21:13.865Z,101866.55
2019-03-28T13:23:43.366Z,101862.42
2019-03-28T13:26:16.007Z,101857.41
2019-03-28T13:28:49.924Z,101866.31
2019-03-28T13:31:22.557Z,101858.29
2019-03-28T13:33:55.167Z,101868.78
2019-03-28T13:36:30.921Z,101862.47
2019-03-28T13:39:04.025Z,101868.84
2019-03-28T13:41:38.063Z,101869.70
2019-03-28T13:44:12.216Z,101863.28
2019-03-28T13:46:45.251Z,101853.44
2019-03-28T13:49:17.809Z,101859.09
2019-03-28T13:51:50.833Z,101862.59
2019-03-28T13:54:23.518Z,101856.60
2019-03-28T13:56:56.347Z,101864.48
2019-03-28T13:59:29.038Z,101857.30
2019-03-28T14:02:01.634Z,101862.88
2019-03-28T14:04:34.309Z,101858.17
2019-03-28T14:07:07.585Z,101865.31
2019-03-28T14:09:42.711Z,101861.06
2019-03-28T14:12:15.906Z,101870.81
2019-03-28T14:14:48.485Z,101862.93
2019-03-28T14:17:21.389Z,101860.02
2019-03-28T14:19:54.007Z,101864.73
2019-03-28T14:22:27.206Z,101866.63
2019-03-28T14:24:59.787Z,101870.52
2019-03-28T14:27:32.513Z,101868.45
2019-03-28T14:30:09.350Z,101856.84
2019-03-28T14:32:52.501Z,101854.46
2019-03-28T14:35:14.777Z,101857.56
2019-03-28T14:37:47.561Z,101861.36
2019-03-28T14:40:22.869Z,101858.77
2019-03-28T14:42:55.961Z,101861.31
2019-03-28T14:45:28.661Z,101857.55
2019-03-28T14:48:01.374Z,101857.47
2019-03-28T14:50:40.190Z,101859.82
2019-03-28T14:53:13.023Z,101850.75
2019-03-28T14:55:46.101Z,101849.64
2019-03-28T14:58:21.947Z,101848.89
2019-03-28T15:00:55.645Z,101845.95
2019-03-28T15:03:29.787Z,101848.62
2019-03-28T15:06:02.410Z,101847.52
2019-03-28T15:08:35.476Z,101857.88
2019-03-28T15:11:08.195Z,101854.39
2019-03-28T15:13:40.990Z,101853.11
2019-03-28T15:16:13.603Z,101852.72
2019-03-28T15:18:47.608Z,101842.25
2019-03-28T15:21:20.248Z,101852.95
2019-03-28T15:23:53.031Z,101850.81
2019-03-28T15:26:25.669Z,101858.62
2019-03-28T15:28:58.464Z,101855.88
2019-03-28T15:31:31.013Z,101860.82
2019-03-28T15:34:03.904Z,101859.08
2019-03-28T15:36:36.548Z,101860.56
2019-03-28T15:39:10.495Z,101865.72
2019-03-28T15:41:44.987Z,101871.20
2019-03-28T15:44:17.920Z,101868.75
2019-03-28T15:46:51.517Z,101872.09
2019-03-28T15:49:24.914Z,101871.23
2019-03-28T15:51:57.677Z,101868.78
2019-03-28T15:54:30.639Z,101870.52
2019-03-28T15:57:03.280Z,101867.08
2019-03-28T15:59:35.977Z,101880.60
2019-03-28T16:02:09.196Z,101888.28
2019-03-28T16:04:42.112Z,101874.92
2019-03-28T16:07:14.743Z,101888.30
2019-03-28T16:09:47.467Z,101887.36
2019-03-28T16:12:20.035Z,101892.22
2019-03-28T16:14:52.917Z,101895.52
2019-03-28T16:17:25.678Z,101897.52
2019-03-28T16:19:58.581Z,101897.25
2019-03-28T16:22:31.308Z,101898.44
2019-03-28T16:25:04.276Z,101904.89
2019-03-28T16:27:36.901Z,101911.08
2019-03-28T16:30:12.580Z,101909.45
2019-03-28T16:32:45.183Z,101913.05
2019-03-28T16:35:21.367Z,101926.05
2019-03-28T16:37:54.514Z,101920.79
2019-03-28T16:40:27.425Z,101929.41
2019-03-28T16:43:00.117Z,101934.84
2019-03-28T16:45:33.003Z,101936.92
2019-03-28T16:48:07.708Z,101945.84
2019-03-28T16:50:40.400Z,101948.34
2019-03-28T16:53:13.038Z,101948.47
2019-03-28T16:55:46.069Z,101948.33
2019-03-28T16:58:19.808Z,101948.13
2019-03-28T17:00:52.944Z,101947.27
2019-03-28T17:03:25.610Z,101946.66
2019-03-28T17:05:59.451Z,101943.31
2019-03-28T17:08:34.420Z,101952.75
2019-03-28T17:11:11.821Z,101951.37
2019-03-28T17:13:46.121Z,101952.89
2019-03-28T17:16:18.720Z,101959.42
2019-03-28T17:18:52.808Z,101953.52
2019-03-28T17:21:25.456Z,101954.92
2019-03-28T17:23:58.045Z,101951.84
2019-03-28T17:26:31.043Z,101951.98
2019-03-28T17:29:03.757Z,101962.00
2019-03-28T17:31:38.797Z,101967.20
2019-03-28T17:34:11.453Z,101966.77
2019-03-28T17:36:44.791Z,101973.84
2019-03-28T17:39:18.592Z,101974.62
2019-03-28T17:41:52.096Z,101971.98
2019-03-28T17:44:25.012Z,101978.53
2019-03-28T17:46:57.837Z,101981.97
2019-03-28T17:49:30.635Z,101982.26
2019-03-28T17:52:03.506Z,101978.70
2019-03-28T17:54:36.214Z,101987.28
2019-03-28T17:57:10.837Z,101983.57
2019-03-28T17:59:45.312Z,101986.89
2019-03-28T18:02:17.887Z,101983.61
2019-03-28T18:04:50.545Z,101985.30
2019-03-28T18:07:25.035Z,101989.45
2019-03-28T18:09:57.636Z,101990.23
2019-03-28T18:12:31.217Z,101989.66
2019-03-28T18:15:03.990Z,101991.59
2019-03-28T18:17:37.290Z,101995.28
2019-03-28T18:20:11.040Z,102001.91
2019-03-28T18:22:44.154Z,102006.13
2019-03-28T18:25:16.880Z,102003.72
2019-03-28T18:27:49.569Z,102011.42
2019-03-28T18:30:23.189Z,102012.19
2019-03-28T18:32:56.392Z,102012.89
2019-03-28T18:35:29.072Z,102016.13
2019-03-28T18:38:01.845Z,102009.72
2019-03-28T18:40:34.401Z,102018.59
2019-03-28T18:43:07.088Z,102021.95
2019-03-28T18:45:39.750Z,102023.88
2019-03-28T18:48:26.941Z,102018.77
2019-03-28T18:50:46.881Z,102026.78
2019-03-28T18:53:19.731Z,102031.38
2019-03-28T18:55:52.634Z,102037.27
2019-03-28T18:58:25.783Z,102038.00
2019-03-28T19:00:58.557Z,102037.20
2019-03-28T19:03:31.798Z,102037.80
2019-03-28T19:06:04.923Z,102045.79
2019-03-28T19:08:37.910Z,102045.55
2019-03-28T19:11:11.452Z,102044.36
2019-03-28T19:13:45.174Z,102049.69
2019-03-28T19:16:21.612Z,102040.73
2019-03-28T19:18:53.259Z,102038.41
2019-03-28T19:21:25.990Z,102048.89
2019-03-28T19:24:00.542Z,102042.43
2019-03-28T19:26:33.162Z,102046.91
2019-03-28T19:29:06.240Z,102040.49
2019-03-28T19:31:39.021Z,102036.72
2019-03-28T19:34:11.669Z,102037.35
2019-03-28T19:36:45.112Z,102036.63
2019-03-28T19:39:32.437Z,102035.91
2019-03-28T19:42:05.171Z,102035.14
2019-03-28T19:44:38.187Z,102044.92
2019-03-28T19:47:12.902Z,102039.45
2019-03-28T19:49:45.787Z,102046.63
2019-03-28T19:52:18.409Z,102049.36
2019-03-28T19:54:51.121Z,102039.39
2019-03-28T19:57:23.838Z,102045.55
2019-03-28T19:59:58.614Z,102041.23
2019-03-28T20:02:31.037Z,102045.66
2019-03-28T20:05:03.826Z,102052.28
2019-03-28T20:07:36.588Z,102065.02
2019-03-28T20:10:16.104Z,102069.12
2019-03-28T20:12:45.182Z,102067.54
2019-03-28T20:15:19.886Z,102072.45
2019-03-28T20:17:52.644Z,102076.98
2019-03-28T20:20:25.647Z,102075.81
2019-03-28T20:22:58.250Z,102069.41
2019-03-28T20:25:31.209Z,102074.72
2019-03-28T20:28:04.016Z,102067.40
2019-03-28T20:30:36.967Z,102070.16
2019-03-28T20:33:09.731Z,102075.45
2019-03-28T20:35:42.659Z,102080.33
2019-03-28T20:38:16.758Z,102082.16
2019-03-28T20:40:50.774Z,102086.56
2019-03-28T20:43:25.117Z,102087.55
2019-03-28T20:45:58.503Z,102093.76
2019-03-28T20:48:31.152Z,102092.58
2019-03-28T20:51:03.883Z,102095.22
2019-03-28T20:53:37.216Z,102094.90
2019-03-28T20:56:10.969Z,102092.83
2019-03-28T20:58:43.838Z,102095.55
2019-03-28T21:01:16.704Z,102103.02
2019-03-28T21:03:49.813Z,102100.07
2019-03-28T21:06:23.314Z,102104.99
2019-03-28T21:08:55.936Z,102104.69
2019-03-28T21:11:29.626Z,102098.70
2019-03-28T21:14:02.633Z,102097.48
2019-03-28T21:16:36.342Z,102091.04
2019-03-28T21:19:09.384Z,102096.38
2019-03-28T21:21:44.572Z,102089.09
2019-03-28T21:24:16.674Z,102088.32
2019-03-28T21:26:49.607Z,102091.89
2019-03-28T21:29:22.273Z,102090.30
2019-03-28T21:31:55.545Z,102091.69
2019-03-28T21:34:28.268Z,102095.29
2019-03-28T21:37:01.309Z,102091.94
2019-03-28T21:39:39.962Z,102092.02
2019-03-28T21:42:12.364Z,102090.38
2019-03-28T21:44:45.086Z,102091.73
2019-03-28T21:47:18.589Z,102095.75
2019-03-28T21:49:51.761Z,102084.54
2019-03-28T21:52:24.559Z,102080.27
2019-03-28T21:54:57.212Z,102084.31
2019-03-28T21:57:31.855Z,102085.73
2019-03-28T22:00:08.450Z,102081.97
2019-03-28T22:02:44.078Z,102090.31
2019-03-28T22:05:16.747Z,102080.80
2019-03-28T22:07:49.681Z,102083.52
2019-03-28T22:10:22.450Z,102086.66
2019-03-28T22:12:55.897Z,102086.68
2019-03-28T22:15:28.993Z,102085.83
2019-03-28T22:18:02.319Z,102080.23
2019-03-28T22:20:35.020Z,102077.66
2019-03-28T22:23:09.035Z,102081.20
2019-03-28T22:25:41.654Z,102079.48
2019-03-28T22:28:14.396Z,102079.08
2019-03-28T22:30:47.107Z,102079.58
2019-03-28T22:33:19.925Z,102083.55
2019-03-28T22:35:52.521Z,102083.59
2019-03-28T22:38:25.191Z,102084.53
2019-03-28T22:40:57.742Z,102082.45
2019-03-28T22:43:30.769Z,102073.86
2019-03-28T22:46:03.358Z,102074.80
2019-03-28T22:48:36.318Z,102078.75
2019-03-28T22:51:09.255Z,102070.14
2019-03-28T22:53:42.221Z,102070.21
2019-03-28T22:56:14.848Z,102071.15
2019-03-28T22:58:47.523Z,102074.66
2019-03-28T23:01:20.303Z,102080.80
2019-03-28T23:03:55.065Z,102082.13
2019-03-28T23:06:27.703Z,102085.67
2019-03-28T23:09:00.527Z,102093.53
2019-03-28T23:11:34.911Z,102086.66
2019-03-28T23:14:08.376Z,102083.63
2019-03-28T23:16:40.950Z,102079.75
2019-03-28T23:19:13.608Z,102083.68
2019-03-28T23:21:46.186Z,102085.91
2019-03-28T23:24:18.853Z,102077.68
2019-03-28T23:26:51.641Z,102080.73
2019-03-28T23:29:24.673Z,102084.65
2019-03-28T23:31:57.357Z,102073.42
2019-03-28T23:34:30.633Z,102079.52
2019-03-28T23:37:03.266Z,102073.06
2019-03-28T23:39:36.280Z,102074.39
2019-03-28T23:42:08.924Z,102070.50
2019-03-28T23:44:41.638Z,102067.52
2019-03-28T23:47:14.673Z,102065.77
2019-03-28T23:49:48.042Z,102069.67
2019-03-28T23:52:22.235Z,102070.17
2019-03-28T23:54:55.132Z,102066.74
2019-03-28T23:57:28.815Z,102076.33
